createdAt,value
2023-02-21T00:01:47.349Z,31.25
2023-02-21T00:04:33.895Z,33.50
2023-02-21T00:07:19.193Z,33.40
2023-02-21T00:10:04.729Z,31.67
2023-02-21T00:12:50.052Z,33.28
2023-02-21T00:15:35.448Z,29.73
2023-02-21T00:18:20.670Z,32.38
2023-02-21T00:21:07.206Z,32.03
2023-02-21T00:23:53.116Z,30.42
2023-02-21T00:26:38.487Z,30.88
2023-02-21T00:29:23.915Z,32.72
2023-02-21T00:32:09.432Z,35.13
2023-02-21T00:34:57.256Z,34.15
2023-02-21T00:37:43.758Z,36.70
2023-02-21T00:40:31.065Z,33.03
2023-02-21T00:43:16.536Z,37.40
2023-02-21T00:46:01.888Z,39.08
2023-02-21T00:48:47.227Z,35.10
2023-02-21T00:51:32.531Z,33.83
2023-02-21T00:54:19.138Z,35.28
2023-02-21T00:57:04.598Z,35.42
2023-02-21T00:59:49.768Z,37.92
2023-02-21T01:02:35.141Z,30.38
2023-02-21T01:05:20.381Z,37.78
2023-02-21T01:08:05.556Z,33.25
2023-02-21T01:10:52.236Z,39.15
2023-02-21T01:13:37.343Z,39.33
2023-02-21T01:16:25.830Z,38.80
2023-02-21T01:19:10.925Z,33.60
2023-02-21T01:21:56.145Z,35.40
2023-02-21T01:24:41.343Z,38.35
2023-02-21T01:27:27.835Z,39.70
2023-02-21T01:30:13.215Z,39.15
2023-02-21T01:32:58.610Z,39.47
2023-02-21T01:35:43.728Z,42.00
2023-02-21T01:38:29.067Z,36.15
2023-02-21T01:41:14.752Z,37.63
2023-02-21T01:44:16.239Z,41.35
2023-02-21T01:47:01.679Z,43.70
2023-02-21T01:49:47.491Z,40.67
2023-02-21T01:52:32.636Z,45.47
2023-02-21T01:55:17.845Z,48.60
2023-02-21T01:58:04.847Z,40.28
2023-02-21T02:00:51.836Z,49.30
2023-02-21T02:03:39.316Z,41.63
2023-02-21T02:06:27.645Z,46.67
2023-02-21T02:09:12.981Z,44.28
2023-02-21T02:12:23.220Z,44.25
2023-02-21T02:15:19.453Z,50.10
2023-02-21T02:18:02.892Z,44.63
2023-02-21T02:20:52.801Z,43.08
2023-02-21T02:23:57.845Z,46.53
2023-02-21T02:26:49.995Z,46.70
2023-02-21T02:29:38.460Z,42.20
2023-02-21T02:32:26.292Z,49.78
2023-02-21T02:35:01.106Z,46.55
2023-02-21T02:37:33.948Z,42.08
2023-02-21T02:40:10.038Z,48.70
2023-02-21T02:42:49.966Z,43.67
2023-02-21T02:45:23.767Z,47.30
2023-02-21T02:47:56.404Z,49.92
2023-02-21T02:50:27.399Z,43.70
2023-02-21T02:52:56.547Z,49.40
2023-02-21T02:55:33.207Z,46.13
2023-02-21T02:58:02.631Z,52.70
2023-02-21T03:00:31.875Z,58.75
2023-02-21T03:03:31.812Z,48.55
2023-02-21T03:06:21.168Z,52.95
2023-02-21T03:08:58.098Z,52.03
2023-02-21T03:11:27.698Z,51.05
2023-02-21T03:14:00.512Z,51.15
2023-02-21T03:16:32.554Z,51.65
2023-02-21T03:19:05.243Z,48.10
2023-02-21T03:21:41.789Z,49.03
2023-02-21T03:24:11.538Z,47.60
2023-02-21T03:26:43.221Z,44.13
2023-02-21T03:29:12.459Z,47.55
2023-02-21T03:31:45.385Z,46.42
2023-02-21T03:34:13.162Z,48.35
2023-02-21T03:36:42.952Z,46.85
2023-02-21T03:39:10.500Z,49.15
2023-02-21T03:41:38.007Z,49.58
2023-02-21T03:44:05.770Z,53.80
2023-02-21T03:46:33.820Z,46.15
2023-02-21T03:49:01.360Z,47.97
2023-02-21T03:51:28.829Z,46.78
2023-02-21T03:53:57.649Z,51.35
2023-02-21T03:56:33.414Z,54.45
2023-02-21T03:59:07.912Z,49.85
2023-02-21T04:01:35.508Z,51.70
2023-02-21T04:04:02.985Z,55.80
2023-02-21T04:06:30.476Z,48.85
2023-02-21T04:08:59.303Z,48.67
2023-02-21T04:11:26.890Z,48.28
2023-02-21T04:13:54.474Z,51.90
2023-02-21T04:16:22.002Z,51.25
2023-02-21T04:18:49.546Z,54.08
2023-02-21T04:21:17.967Z,52.00
2023-02-21T04:23:45.500Z,48.67
2023-02-21T04:26:14.346Z,51.08
2023-02-21T04:28:41.825Z,51.92
2023-02-21T04:31:09.312Z,55.13
2023-02-21T04:33:37.009Z,54.75
2023-02-21T04:36:04.829Z,56.42
2023-02-21T04:38:32.535Z,56.08
2023-02-21T04:40:59.994Z,50.05
2023-02-21T04:43:28.815Z,54.03
2023-02-21T04:45:56.359Z,54.35
2023-02-21T04:48:23.860Z,52.83
2023-02-21T04:50:51.423Z,60.40
2023-02-21T04:53:19.061Z,55.75
2023-02-21T04:55:46.532Z,57.75
2023-02-21T04:58:14.064Z,66.55
2023-02-21T05:00:42.956Z,64.72
2023-02-21T05:03:10.522Z,55.53
2023-02-21T05:05:38.228Z,57.78
2023-02-21T05:08:05.785Z,65.05
2023-02-21T05:10:44.890Z,60.90
2023-02-21T05:13:13.179Z,61.72
2023-02-21T05:15:40.711Z,55.90
2023-02-21T05:18:09.768Z,59.90
2023-02-21T05:20:37.253Z,62.53
2023-02-21T05:23:13.445Z,60.35
2023-02-21T05:25:41.589Z,57.97
2023-02-21T05:28:09.126Z,67.40
2023-02-21T05:30:36.687Z,63.88
2023-02-21T05:33:05.392Z,65.28
2023-02-21T05:35:34.469Z,59.67
2023-02-21T05:38:02.236Z,56.28
2023-02-21T05:40:29.744Z,64.55
2023-02-21T05:42:57.354Z,62.13
2023-02-21T05:45:24.853Z,60.10
2023-02-21T05:47:56.186Z,55.67
2023-02-21T05:50:23.674Z,64.53
2023-02-21T05:52:52.521Z,62.05
2023-02-21T05:55:20.609Z,56.67
2023-02-21T05:57:48.145Z,65.78
2023-02-21T06:00:18.255Z,59.25
2023-02-21T06:02:45.878Z,59.83
2023-02-21T06:05:13.636Z,58.53
2023-02-21T06:07:41.143Z,62.80
2023-02-21T06:10:10.184Z,60.83
2023-02-21T06:12:37.903Z,56.97
2023-02-21T06:15:07.233Z,54.95
2023-02-21T06:17:34.813Z,51.95
2023-02-21T06:20:02.313Z,62.08
2023-02-21T06:22:29.819Z,57.00
2023-02-21T06:24:57.283Z,55.67
2023-02-21T06:27:26.199Z,53.03
2023-02-21T06:29:53.716Z,66.43
2023-02-21T06:32:21.237Z,56.83
2023-02-21T06:34:48.763Z,58.78
2023-02-21T06:37:16.257Z,61.83
2023-02-21T06:39:43.755Z,62.05
2023-02-21T06:42:13.913Z,60.65
2023-02-21T06:44:44.168Z,57.88
2023-02-21T06:47:11.667Z,53.05
2023-02-21T06:49:39.229Z,52.65
2023-02-21T06:52:07.187Z,57.85
2023-02-21T06:54:35.270Z,56.75
2023-02-21T06:57:02.799Z,52.78
2023-02-21T06:59:30.562Z,51.83
2023-02-21T07:01:59.491Z,54.55
2023-02-21T07:04:27.132Z,52.35
2023-02-21T07:06:55.371Z,51.17
2023-02-21T07:09:22.893Z,54.35
2023-02-21T07:11:51.414Z,54.90
2023-02-21T07:14:18.914Z,57.95
2023-02-21T07:16:46.396Z,56.05
2023-02-21T07:21:43.757Z,61.35
2023-02-21T07:24:11.295Z,60.58
2023-02-21T07:26:39.000Z,57.95
2023-02-21T07:29:07.533Z,60.38
2023-02-21T07:31:35.444Z,63.50
2023-02-21T07:34:04.159Z,56.75
2023-02-21T07:36:33.231Z,61.10
2023-02-21T07:39:00.756Z,60.55
2023-02-21T07:41:28.263Z,59.75
2023-02-21T07:43:56.191Z,63.70
2023-02-21T07:46:28.137Z,62.13
2023-02-21T07:48:55.778Z,57.22
2023-02-21T07:51:23.556Z,60.47
2023-02-21T07:53:52.562Z,62.50
2023-02-21T07:56:20.038Z,65.22
2023-02-21T07:58:47.815Z,56.42
2023-02-21T08:01:15.619Z,63.00
2023-02-21T08:03:43.518Z,65.90
2023-02-21T08:06:11.946Z,68.50
2023-02-21T08:08:39.785Z,69.70
2023-02-21T08:11:08.693Z,66.80
2023-02-21T08:13:36.204Z,67.13
2023-02-21T08:16:07.264Z,65.82
2023-02-21T08:18:34.752Z,63.38
2023-02-21T08:21:02.265Z,62.75
2023-02-21T08:23:29.868Z,66.97
2023-02-21T08:25:57.363Z,66.53
2023-02-21T08:28:26.206Z,61.72
2023-02-21T08:30:53.814Z,52.10
2023-02-21T08:33:32.529Z,64.10
2023-02-21T08:36:04.125Z,65.22
2023-02-21T08:38:31.742Z,53.33
2023-02-21T08:40:59.257Z,55.33
2023-02-21T08:43:30.303Z,59.30
2023-02-21T08:46:00.622Z,52.80
2023-02-21T08:48:28.231Z,52.47
2023-02-21T08:50:56.029Z,48.08
2023-02-21T08:53:26.288Z,47.20
2023-02-21T08:55:54.055Z,44.30
2023-02-21T08:58:49.370Z,46.58
2023-02-21T09:01:20.330Z,43.83
2023-02-21T09:03:49.385Z,45.47
2023-02-21T09:06:17.879Z,44.50
2023-02-21T09:08:55.448Z,40.47
2023-02-21T09:11:22.946Z,45.53
2023-02-21T09:13:52.984Z,43.63
2023-02-21T09:16:25.114Z,38.13
2023-02-21T09:18:56.852Z,35.35
2023-02-21T09:21:24.387Z,41.83
2023-02-21T09:23:53.939Z,39.13
2023-02-21T09:26:23.913Z,34.60
2023-02-21T09:28:53.349Z,45.20
2023-02-21T09:31:24.006Z,37.00
2023-02-21T09:33:51.552Z,34.05
2023-02-21T09:36:24.040Z,34.22
2023-02-21T09:38:53.560Z,35.08
2023-02-21T09:41:21.466Z,38.40
2023-02-21T09:43:52.008Z,36.20
2023-02-21T09:46:29.775Z,34.67
2023-02-21T09:48:57.776Z,35.92
2023-02-21T09:51:26.057Z,37.30
2023-02-21T09:53:56.964Z,37.40
2023-02-21T09:56:29.504Z,36.65
2023-02-21T09:58:58.850Z,39.88
2023-02-21T10:01:44.010Z,37.97
2023-02-21T10:04:22.468Z,31.08
2023-02-21T10:06:56.259Z,34.05
2023-02-21T10:09:31.609Z,35.30
2023-02-21T10:14:51.276Z,33.70
2023-02-21T10:17:24.456Z,32.58
2023-02-21T10:19:55.653Z,34.13
2023-02-21T10:22:27.953Z,31.90
2023-02-21T10:24:55.877Z,31.77
2023-02-21T10:27:27.379Z,35.47
2023-02-21T10:29:58.522Z,30.30
2023-02-21T10:32:28.232Z,29.55
2023-02-21T10:34:56.195Z,28.70
2023-02-21T10:37:34.259Z,27.00
2023-02-21T10:40:08.210Z,28.10
2023-02-21T10:42:40.875Z,25.85
2023-02-21T10:45:09.860Z,26.17
2023-02-21T10:47:51.922Z,25.92
2023-02-21T10:50:39.148Z,35.30
2023-02-21T10:53:07.716Z,27.75
2023-02-21T10:55:36.036Z,26.10
2023-02-21T10:58:09.921Z,28.00
2023-02-21T11:00:42.104Z,29.13
2023-02-21T11:03:23.892Z,31.08
2023-02-21T11:05:54.172Z,28.95
2023-02-21T11:08:37.631Z,27.02
2023-02-21T11:11:05.574Z,24.80
2023-02-21T11:13:35.981Z,25.20
2023-02-21T11:16:12.556Z,27.38
2023-02-21T11:18:41.454Z,25.13
2023-02-21T11:21:15.197Z,26.42
2023-02-21T11:23:46.929Z,27.42
2023-02-21T11:26:16.784Z,26.10
2023-02-21T11:28:47.906Z,27.25
2023-02-21T11:31:27.459Z,24.63
2023-02-21T11:34:00.476Z,24.67
2023-02-21T11:36:31.326Z,26.65
2023-02-21T11:39:06.004Z,23.45
2023-02-21T11:41:39.423Z,27.70
2023-02-21T11:44:29.968Z,28.08
2023-02-21T11:47:06.351Z,24.73
2023-02-21T11:49:45.146Z,27.88
2023-02-21T11:52:20.211Z,28.05
2023-02-21T11:54:47.711Z,25.92
2023-02-21T11:57:22.971Z,29.63
2023-02-21T12:02:54.822Z,27.58
2023-02-21T12:05:35.311Z,27.67
2023-02-21T12:08:23.043Z,31.20
2023-02-21T12:10:59.137Z,26.42
2023-02-21T12:13:36.274Z,25.42
2023-02-21T12:16:12.896Z,25.50
2023-02-21T12:18:57.920Z,27.05
2023-02-21T12:21:56.541Z,27.42
2023-02-21T12:24:35.712Z,27.88
2023-02-21T12:27:12.399Z,26.25
2023-02-21T12:29:57.134Z,30.15
2023-02-21T12:32:38.241Z,26.20
2023-02-21T12:35:33.980Z,31.58
2023-02-21T12:38:08.140Z,27.92
2023-02-21T12:40:49.328Z,26.50
2023-02-21T12:43:32.536Z,29.73
2023-02-21T12:46:08.590Z,27.77
2023-02-21T12:48:55.010Z,34.22
2023-02-21T12:51:26.894Z,30.25
2023-02-21T12:54:00.913Z,33.10
2023-02-21T12:56:33.968Z,30.58
2023-02-21T13:02:02.751Z,39.15
2023-02-21T13:04:42.473Z,35.78
2023-02-21T13:07:19.121Z,32.33
2023-02-21T13:09:55.448Z,34.58
2023-02-21T13:12:37.183Z,35.50
2023-02-21T13:15:17.207Z,35.58
2023-02-21T13:17:56.482Z,32.90
2023-02-21T13:20:30.983Z,34.08
2023-02-21T13:23:40.642Z,38.40
2023-02-21T13:26:33.637Z,30.83
2023-02-21T13:31:53.089Z,33.05
2023-02-21T13:34:35.941Z,35.92
2023-02-21T13:37:16.592Z,34.22
2023-02-21T13:39:47.426Z,33.42
2023-02-21T13:42:20.387Z,37.50
2023-02-21T13:44:51.700Z,34.38
2023-02-21T13:47:21.511Z,39.50
2023-02-21T13:49:51.861Z,43.42
2023-02-21T13:52:57.570Z,41.25
2023-02-21T13:55:27.249Z,41.67
2023-02-21T13:58:27.214Z,37.15
2023-02-21T14:00:57.993Z,40.05
2023-02-21T14:03:34.725Z,38.47
2023-02-21T14:06:29.352Z,43.25
2023-02-21T14:09:01.268Z,40.53
2023-02-21T14:11:32.054Z,37.17
2023-02-21T14:14:03.073Z,41.35
2023-02-21T14:16:35.525Z,35.42
2023-02-21T14:19:07.723Z,38.78
2023-02-21T14:21:37.833Z,41.78
2023-02-21T14:24:12.226Z,37.75
2023-02-21T14:26:51.673Z,39.40
2023-02-21T14:29:35.120Z,40.55
2023-02-21T14:32:35.604Z,40.63
2023-02-21T14:35:22.064Z,42.72
2023-02-21T14:37:54.513Z,35.50
2023-02-21T14:40:34.572Z,41.72
2023-02-21T14:43:17.629Z,40.38
2023-02-21T14:46:07.195Z,40.13
2023-02-21T14:48:52.401Z,37.97
2023-02-21T14:51:54.303Z,41.42
2023-02-21T14:54:57.533Z,33.85
2023-02-21T14:57:43.911Z,33.80
2023-02-21T15:00:23.776Z,35.90
2023-02-21T15:02:57.854Z,36.33
2023-02-21T15:05:31.358Z,36.22
2023-02-21T15:08:05.792Z,35.70
2023-02-21T15:10:40.502Z,39.78
2023-02-21T15:13:20.975Z,44.30
2023-02-21T15:15:48.509Z,37.88
2023-02-21T15:18:27.011Z,32.95
2023-02-21T15:21:19.396Z,39.63
2023-02-21T15:23:48.879Z,39.28
2023-02-21T15:26:19.687Z,38.85
2023-02-21T15:28:47.193Z,36.45
2023-02-21T15:31:16.457Z,42.25
2023-02-21T15:33:45.177Z,39.05
2023-02-21T15:36:19.562Z,40.80
2023-02-21T15:38:50.801Z,41.80
2023-02-21T15:41:28.619Z,47.88
2023-02-21T15:44:00.886Z,43.40
2023-02-21T15:46:35.116Z,43.33
2023-02-21T15:49:04.699Z,38.45
2023-02-21T15:51:33.973Z,41.85
2023-02-21T15:54:23.317Z,45.17
2023-02-21T15:57:07.881Z,47.42
2023-02-21T15:59:37.533Z,41.65
2023-02-21T16:02:14.605Z,49.60
2023-02-21T16:04:44.110Z,45.00
2023-02-21T16:07:21.342Z,46.05
2023-02-21T16:09:51.296Z,42.70
2023-02-21T16:12:31.998Z,51.22
2023-02-21T16:15:01.872Z,45.20
2023-02-21T16:17:33.044Z,46.85
2023-02-21T16:20:05.230Z,46.90
2023-02-21T16:22:53.953Z,53.60
2023-02-21T16:25:25.611Z,46.65
2023-02-21T16:27:54.408Z,49.53
2023-02-21T16:30:23.978Z,49.58
2023-02-21T16:32:53.389Z,49.80
2023-02-21T16:35:23.208Z,48.75
2023-02-21T16:37:54.434Z,47.38
2023-02-21T16:40:24.934Z,48.70
2023-02-21T16:42:53.943Z,48.95
2023-02-21T16:45:22.090Z,50.50
2023-02-21T16:47:51.995Z,56.78
2023-02-21T16:50:23.681Z,51.55
2023-02-21T16:52:52.513Z,48.63
2023-02-21T16:55:20.867Z,50.53
2023-02-21T16:57:49.716Z,46.50
2023-02-21T17:00:21.041Z,50.47
2023-02-21T17:02:49.173Z,50.63
2023-02-21T17:05:17.054Z,52.53
2023-02-21T17:07:44.917Z,57.75
2023-02-21T17:10:13.989Z,55.28
2023-02-21T17:12:41.697Z,60.30
2023-02-21T17:15:10.837Z,54.20
2023-02-21T17:17:38.686Z,52.30
2023-02-21T17:20:07.928Z,53.95
2023-02-21T17:22:37.332Z,50.85
2023-02-21T17:25:05.375Z,51.92
2023-02-21T17:27:34.468Z,56.38
2023-02-21T17:30:01.982Z,54.58
2023-02-21T17:32:30.625Z,56.67
2023-02-21T17:34:58.175Z,57.50
2023-02-21T17:37:25.642Z,47.80
2023-02-21T17:39:54.245Z,61.85
2023-02-21T17:42:22.194Z,53.90
2023-02-21T17:44:51.808Z,57.95
2023-02-21T17:47:19.980Z,57.22
2023-02-21T17:49:48.923Z,60.65
2023-02-21T17:52:17.140Z,61.42
2023-02-21T17:54:44.836Z,57.90
2023-02-21T17:57:12.682Z,56.67
2023-02-21T17:59:40.676Z,59.15
2023-02-21T18:02:09.485Z,57.92
2023-02-21T18:04:37.342Z,55.28
2023-02-21T18:07:04.869Z,58.75
2023-02-21T18:09:32.857Z,55.25
2023-02-21T18:12:01.576Z,45.88
2023-02-21T18:14:32.126Z,53.00
2023-02-21T18:16:59.886Z,55.88
2023-02-21T18:19:29.549Z,53.58
2023-02-21T18:21:57.105Z,63.53
2023-02-21T18:24:25.430Z,44.83
2023-02-21T18:26:52.917Z,50.15
2023-02-21T18:29:20.443Z,53.47
2023-02-21T18:31:54.066Z,55.17
2023-02-21T18:34:22.014Z,51.53
2023-02-21T18:36:52.516Z,51.97
2023-02-21T18:39:21.745Z,51.15
2023-02-21T18:41:49.822Z,57.10
2023-02-21T18:44:17.420Z,54.05
2023-02-21T18:46:50.757Z,55.03
2023-02-21T18:49:18.323Z,50.70
2023-02-21T18:51:45.830Z,57.08
2023-02-21T18:54:14.777Z,53.00
2023-02-21T18:56:48.773Z,68.80
2023-02-21T18:59:16.537Z,59.60
2023-02-21T19:01:44.282Z,55.35
2023-02-21T19:04:13.006Z,58.05
2023-02-21T19:06:40.505Z,57.70
2023-02-21T19:09:08.023Z,54.28
2023-02-21T19:11:36.897Z,52.58
2023-02-21T19:14:05.624Z,51.25
2023-02-21T19:16:33.889Z,48.33
2023-02-21T19:19:03.274Z,61.40
2023-02-21T19:21:31.833Z,53.40
2023-02-21T19:23:59.739Z,59.50
2023-02-21T19:26:30.204Z,56.30
2023-02-21T19:28:59.135Z,54.22
2023-02-21T19:31:27.290Z,52.17
2023-02-21T19:33:55.096Z,53.65
2023-02-21T19:36:23.254Z,50.53
2023-02-21T19:38:50.824Z,51.45
2023-02-21T19:41:19.980Z,51.63
2023-02-21T19:43:47.964Z,61.72
2023-02-21T19:46:25.131Z,56.50
2023-02-21T19:48:53.356Z,60.53
2023-02-21T19:51:23.696Z,59.22
2023-02-21T19:53:51.262Z,55.35
2023-02-21T19:56:19.063Z,63.35
2023-02-21T19:58:47.252Z,54.72
2023-02-21T20:01:15.208Z,58.20
2023-02-21T20:03:44.487Z,60.90
2023-02-21T20:06:12.041Z,64.15
2023-02-21T20:08:39.514Z,59.03
2023-02-21T20:11:07.320Z,54.50
2023-02-21T20:13:37.124Z,58.67
2023-02-21T20:16:04.879Z,58.40
2023-02-21T20:18:32.418Z,61.65
2023-02-21T20:21:01.241Z,62.33
2023-02-21T20:23:28.740Z,60.63
2023-02-21T20:25:56.572Z,60.65
2023-02-21T20:28:24.113Z,61.92
2023-02-21T20:30:51.817Z,63.30
2023-02-21T20:33:20.594Z,63.97
2023-02-21T20:35:48.158Z,63.38
2023-02-21T20:38:16.999Z,64.60
2023-02-21T20:40:45.833Z,64.18
2023-02-21T20:43:13.624Z,58.97
2023-02-21T20:45:41.215Z,57.08
2023-02-21T20:48:10.916Z,66.20
2023-02-21T20:50:39.420Z,60.55
2023-02-21T20:53:06.916Z,60.33
2023-02-21T20:55:37.375Z,62.42
2023-02-21T20:58:05.617Z,61.13
2023-02-21T21:00:36.506Z,62.83
2023-02-21T21:03:05.108Z,61.40
2023-02-21T21:05:33.118Z,64.47
2023-02-21T21:08:01.515Z,61.97
2023-02-21T21:10:29.152Z,55.95
2023-02-21T21:12:58.247Z,68.22
2023-02-21T21:15:26.072Z,72.07
2023-02-21T21:17:53.616Z,67.10
2023-02-21T21:20:23.072Z,67.50
2023-02-21T21:22:51.117Z,60.70
2023-02-21T21:25:18.891Z,60.08
2023-02-21T21:27:47.352Z,59.20
2023-02-21T21:30:22.432Z,67.15
2023-02-21T21:32:50.274Z,72.40
2023-02-21T21:35:19.697Z,59.67
2023-02-21T21:37:47.685Z,66.40
2023-02-21T21:40:16.678Z,64.60
2023-02-21T21:42:45.929Z,78.18
2023-02-21T21:45:19.276Z,62.85
2023-02-21T21:47:47.587Z,62.53
2023-02-21T21:50:16.471Z,65.18
2023-02-21T21:52:44.751Z,58.38
2023-02-21T21:55:18.780Z,60.17
2023-02-21T21:57:53.140Z,67.85
2023-02-21T22:00:24.601Z,62.03
2023-02-21T22:02:56.942Z,72.30
2023-02-21T22:05:25.590Z,68.75
2023-02-21T22:07:53.303Z,69.88
2023-02-21T22:10:21.921Z,71.13
2023-02-21T22:12:50.848Z,62.08
2023-02-21T22:15:20.343Z,72.32
2023-02-21T22:17:49.838Z,71.15
2023-02-21T22:20:19.698Z,67.72
2023-02-21T22:22:48.920Z,68.30
2023-02-21T22:25:17.178Z,74.20
2023-02-21T22:27:44.687Z,70.50
2023-02-21T22:30:15.221Z,68.47
2023-02-21T22:32:43.423Z,70.82
2023-02-21T22:35:18.146Z,62.60
2023-02-21T22:37:47.464Z,61.72
2023-02-21T22:40:23.805Z,72.00
2023-02-21T22:42:52.356Z,68.60
2023-02-21T22:45:21.865Z,61.95
2023-02-21T22:47:50.435Z,70.40
2023-02-21T22:50:20.938Z,66.30
2023-02-21T22:52:51.031Z,75.45
2023-02-21T22:55:18.711Z,74.18
2023-02-21T22:57:46.365Z,65.68
2023-02-21T23:00:20.029Z,67.15
2023-02-21T23:02:48.533Z,66.43
2023-02-21T23:05:19.606Z,69.63
2023-02-21T23:07:50.114Z,58.53
2023-02-21T23:10:19.516Z,61.92
2023-02-21T23:12:48.123Z,62.53
2023-02-21T23:15:18.282Z,65.05
2023-02-21T23:17:48.012Z,55.35
2023-02-21T23:20:22.025Z,62.83
2023-02-21T23:22:53.729Z,69.95
2023-02-21T23:25:25.367Z,64.43
2023-02-21T23:27:55.923Z,69.97
2023-02-21T23:30:27.496Z,66.95
2023-02-21T23:32:56.473Z,72.35
2023-02-21T23:35:24.181Z,74.30
2023-02-21T23:37:53.293Z,66.30
2023-02-21T23:40:27.866Z,69.90
2023-02-21T23:42:56.196Z,85.75
2023-02-21T23:45:26.252Z,78.32
2023-02-21T23:47:56.272Z,78.72
2023-02-21T23:50:30.328Z,69.63
2023-02-21T23:52:59.835Z,79.88
2023-02-21T23:55:29.866Z,97.40
2023-02-21T23:58:01.890Z,86.80
